sensor_id;sensor_type;location;lat;lon;timestamp;P1;durP1;ratioP1;P2;durP2;ratioP2
63012;SDS011;62113;45.624;11.700;2023-02-21T00:01:48;112.45;;;54.40;;
63012;SDS011;62113;45.624;11.700;2023-02-21T00:04:32;114.32;;;56.45;;
63012;SDS011;62113;45.624;11.700;2023-02-21T00:07:16;129.75;;;57.85;;
63012;SDS011;62113;45.624;11.700;2023-02-21T00:10:02;122.70;;;57.75;;
63012;SDS011;62113;45.624;11.700;2023-02-21T00:12:47;126.63;;;60.38;;
63012;SDS011;62113;45.624;11.700;2023-02-21T00:15:31;146.75;;;66.90;;
63012;SDS011;62113;45.624;11.700;2023-02-21T00:18:15;137.40;;;60.13;;
63012;SDS011;62113;45.624;11.700;2023-02-21T00:20:59;111.70;;;57.78;;
63012;SDS011;62113;45.624;11.700;2023-02-21T00:23:43;109.53;;;55.40;;
63012;SDS011;62113;45.624;11.700;2023-02-21T00:26:27;130.13;;;56.20;;
63012;SDS011;62113;45.624;11.700;2023-02-21T00:29:11;116.07;;;51.35;;
63012;SDS011;62113;45.624;11.700;2023-02-21T00:31:55;117.28;;;53.15;;
63012;SDS011;62113;45.624;11.700;2023-02-21T00:34:39;109.07;;;50.80;;
63012;SDS011;62113;45.624;11.700;2023-02-21T00:37:23;97.78;;;52.17;;
63012;SDS011;62113;45.624;11.700;2023-02-21T00:40:09;107.35;;;52.38;;
63012;SDS011;62113;45.624;11.700;2023-02-21T00:42:54;110.15;;;52.58;;
63012;SDS011;62113;45.624;11.700;2023-02-21T00:45:38;109.78;;;52.53;;
63012;SDS011;62113;45.624;11.700;2023-02-21T00:48:22;108.97;;;52.38;;
63012;SDS011;62113;45.624;11.700;2023-02-21T00:51:07;103.80;;;51.92;;
63012;SDS011;62113;45.624;11.700;2023-02-21T00:53:51;109.80;;;52.78;;
63012;SDS011;62113;45.624;11.700;2023-02-21T00:56:35;103.57;;;52.30;;
63012;SDS011;62113;45.624;11.700;2023-02-21T00:59:19;114.70;;;52.10;;
63012;SDS011;62113;45.624;11.700;2023-02-21T01:02:03;109.15;;;52.15;;
63012;SDS011;62113;45.624;11.700;2023-02-21T01:04:48;111.93;;;51.55;;
63012;SDS011;62113;45.624;11.700;2023-02-21T01:07:32;114.45;;;53.78;;
63012;SDS011;62113;45.624;11.700;2023-02-21T01:10:16;114.88;;;55.63;;
63012;SDS011;62113;45.624;11.700;2023-02-21T01:13:00;109.38;;;54.42;;
63012;SDS011;62113;45.624;11.700;2023-02-21T01:15:44;121.55;;;57.35;;
63012;SDS011;62113;45.624;11.700;2023-02-21T01:18:28;127.25;;;57.03;;
63012;SDS011;62113;45.624;11.700;2023-02-21T01:21:16;129.05;;;57.75;;
63012;SDS011;62113;45.624;11.700;2023-02-21T01:24:01;119.57;;;55.80;;
63012;SDS011;62113;45.624;11.700;2023-02-21T01:26:46;124.80;;;55.50;;
63012;SDS011;62113;45.624;11.700;2023-02-21T01:29:30;125.25;;;56.88;;
63012;SDS011;62113;45.624;11.700;2023-02-21T01:32:14;110.07;;;56.45;;
63012;SDS011;62113;45.624;11.700;2023-02-21T01:34:59;121.63;;;57.90;;
63012;SDS011;62113;45.624;11.700;2023-02-21T01:37:43;117.65;;;59.03;;
63012;SDS011;62113;45.624;11.700;2023-02-21T01:40:27;124.43;;;58.65;;
63012;SDS011;62113;45.624;11.700;2023-02-21T01:43:15;147.55;;;60.33;;
63012;SDS011;62113;45.624;11.700;2023-02-21T01:46:03;120.13;;;57.92;;
63012;SDS011;62113;45.624;11.700;2023-02-21T01:48:48;123.80;;;59.15;;
63012;SDS011;62113;45.624;11.700;2023-02-21T01:51:36;130.93;;;60.45;;
63012;SDS011;62113;45.624;11.700;2023-02-21T01:54:23;117.95;;;56.10;;
63012;SDS011;62113;45.624;11.700;2023-02-21T01:57:12;107.72;;;53.97;;
63012;SDS011;62113;45.624;11.700;2023-02-21T01:59:58;103.70;;;52.17;;
63012;SDS011;62113;45.624;11.700;2023-02-21T02:05:35;96.00;;;48.75;;
63012;SDS011;62113;45.624;11.700;2023-02-21T02:08:22;96.80;;;47.83;;
63012;SDS011;62113;45.624;11.700;2023-02-21T02:22:37;118.82;;;57.55;;
63012;SDS011;62113;45.624;11.700;2023-02-21T02:36:25;124.97;;;57.83;;
63012;SDS011;62113;45.624;11.700;2023-02-21T02:44:18;121.22;;;55.50;;
63012;SDS011;62113;45.624;11.700;2023-02-21T02:46:51;122.55;;;58.78;;
63012;SDS011;62113;45.624;11.700;2023-02-21T02:49:21;112.95;;;55.22;;
63012;SDS011;62113;45.624;11.700;2023-02-21T02:51:49;113.47;;;53.67;;
63012;SDS011;62113;45.624;11.700;2023-02-21T02:56:41;113.83;;;53.43;;
63012;SDS011;62113;45.624;11.700;2023-02-21T02:59:09;119.75;;;56.30;;
63012;SDS011;62113;45.624;11.700;2023-02-21T03:01:49;121.25;;;56.92;;
63012;SDS011;62113;45.624;11.700;2023-02-21T03:15:26;109.50;;;55.42;;
63012;SDS011;62113;45.624;11.700;2023-02-21T03:18:08;110.90;;;53.95;;
63012;SDS011;62113;45.624;11.700;2023-02-21T03:20:36;113.80;;;55.25;;
63012;SDS011;62113;45.624;11.700;2023-02-21T03:23:03;103.13;;;52.83;;
63012;SDS011;62113;45.624;11.700;2023-02-21T03:25:30;112.25;;;57.20;;
63012;SDS011;62113;45.624;11.700;2023-02-21T03:27:58;109.50;;;52.35;;
63012;SDS011;62113;45.624;11.700;2023-02-21T03:30:26;113.60;;;52.42;;
63012;SDS011;62113;45.624;11.700;2023-02-21T03:35:19;97.72;;;50.17;;
63012;SDS011;62113;45.624;11.700;2023-02-21T03:37:46;91.60;;;49.20;;
63012;SDS011;62113;45.624;11.700;2023-02-21T03:40:24;87.60;;;46.85;;
63012;SDS011;62113;45.624;11.700;2023-02-21T03:42:53;99.07;;;48.80;;
63012;SDS011;62113;45.624;11.700;2023-02-21T03:45:19;99.35;;;48.30;;
63012;SDS011;62113;45.624;11.700;2023-02-21T03:47:45;112.97;;;52.25;;
63012;SDS011;62113;45.624;11.700;2023-02-21T03:50:11;106.32;;;50.10;;
63012;SDS011;62113;45.624;11.700;2023-02-21T03:52:37;98.45;;;50.58;;
63012;SDS011;62113;45.624;11.700;2023-02-21T03:55:03;100.55;;;50.78;;
63012;SDS011;62113;45.624;11.700;2023-02-21T03:57:30;104.85;;;51.67;;
63012;SDS011;62113;45.624;11.700;2023-02-21T03:59:55;97.13;;;49.72;;
63012;SDS011;62113;45.624;11.700;2023-02-21T04:02:21;96.88;;;47.92;;
63012;SDS011;62113;45.624;11.700;2023-02-21T04:04:47;92.97;;;48.33;;
63012;SDS011;62113;45.624;11.700;2023-02-21T04:07:13;99.55;;;50.25;;
63012;SDS011;62113;45.624;11.700;2023-02-21T04:09:39;95.40;;;46.33;;
63012;SDS011;62113;45.624;11.700;2023-02-21T04:12:05;89.78;;;47.03;;
63012;SDS011;62113;45.624;11.700;2023-02-21T04:14:31;100.90;;;46.97;;
63012;SDS011;62113;45.624;11.700;2023-02-21T04:16:56;92.20;;;48.75;;
63012;SDS011;62113;45.624;11.700;2023-02-21T04:19:22;96.68;;;47.55;;
63012;SDS011;62113;45.624;11.700;2023-02-21T04:21:48;98.43;;;49.03;;
63012;SDS011;62113;45.624;11.700;2023-02-21T04:24:13;96.90;;;45.58;;
63012;SDS011;62113;45.624;11.700;2023-02-21T04:26:39;93.28;;;45.00;;
63012;SDS011;62113;45.624;11.700;2023-02-21T04:29:05;93.00;;;47.42;;
63012;SDS011;62113;45.624;11.700;2023-02-21T04:31:30;96.10;;;46.28;;
63012;SDS011;62113;45.624;11.700;2023-02-21T04:33:57;100.50;;;45.90;;
63012;SDS011;62113;45.624;11.700;2023-02-21T04:36:23;103.13;;;48.22;;
63012;SDS011;62113;45.624;11.700;2023-02-21T04:38:49;92.78;;;47.92;;
63012;SDS011;62113;45.624;11.700;2023-02-21T04:41:15;97.00;;;46.13;;
63012;SDS011;62113;45.624;11.700;2023-02-21T04:43:41;100.90;;;48.10;;
63012;SDS011;62113;45.624;11.700;2023-02-21T04:46:08;112.30;;;48.45;;
63012;SDS011;62113;45.624;11.700;2023-02-21T04:48:34;106.03;;;51.67;;
63012;SDS011;62113;45.624;11.700;2023-02-21T04:51:00;118.63;;;51.00;;
63012;SDS011;62113;45.624;11.700;2023-02-21T04:53:25;114.15;;;50.63;;
63012;SDS011;62113;45.624;11.700;2023-02-21T04:55:51;108.28;;;48.83;;
63012;SDS011;62113;45.624;11.700;2023-02-21T04:58:17;102.50;;;48.15;;
63012;SDS011;62113;45.624;11.700;2023-02-21T05:00:42;113.50;;;51.13;;
63012;SDS011;62113;45.624;11.700;2023-02-21T05:03:08;117.10;;;50.53;;
63012;SDS011;62113;45.624;11.700;2023-02-21T05:05:33;101.85;;;50.17;;
63012;SDS011;62113;45.624;11.700;2023-02-21T05:07:59;108.13;;;49.90;;
63012;SDS011;62113;45.624;11.700;2023-02-21T05:10:25;102.47;;;46.50;;
63012;SDS011;62113;45.624;11.700;2023-02-21T05:12:50;104.00;;;45.83;;
63012;SDS011;62113;45.624;11.700;2023-02-21T05:15:16;96.88;;;45.20;;
63012;SDS011;62113;45.624;11.700;2023-02-21T05:17:41;97.85;;;46.80;;
63012;SDS011;62113;45.624;11.700;2023-02-21T05:20:07;90.20;;;45.90;;
63012;SDS011;62113;45.624;11.700;2023-02-21T05:22:38;98.72;;;45.50;;
63012;SDS011;62113;45.624;11.700;2023-02-21T05:25:18;94.15;;;44.65;;
63012;SDS011;62113;45.624;11.700;2023-02-21T05:27:45;90.60;;;41.63;;
63012;SDS011;62113;45.624;11.700;2023-02-21T05:30:12;84.03;;;44.33;;
63012;SDS011;62113;45.624;11.700;2023-02-21T05:32:39;78.13;;;41.53;;
63012;SDS011;62113;45.624;11.700;2023-02-21T05:35:05;83.07;;;41.85;;
63012;SDS011;62113;45.624;11.700;2023-02-21T05:37:31;84.57;;;41.97;;
63012;SDS011;62113;45.624;11.700;2023-02-21T05:39:57;87.00;;;42.83;;
63012;SDS011;62113;45.624;11.700;2023-02-21T05:42:23;92.20;;;42.33;;
63012;SDS011;62113;45.624;11.700;2023-02-21T05:44:49;89.22;;;40.78;;
63012;SDS011;62113;45.624;11.700;2023-02-21T05:47:15;81.78;;;40.70;;
63012;SDS011;62113;45.624;11.700;2023-02-21T05:49:41;81.30;;;41.65;;
63012;SDS011;62113;45.624;11.700;2023-02-21T05:52:09;75.60;;;39.45;;
63012;SDS011;62113;45.624;11.700;2023-02-21T05:54:36;77.30;;;40.42;;
63012;SDS011;62113;45.624;11.700;2023-02-21T05:57:01;77.25;;;40.03;;
63012;SDS011;62113;45.624;11.700;2023-02-21T05:59:27;81.78;;;40.40;;
63012;SDS011;62113;45.624;11.700;2023-02-21T06:01:53;90.10;;;43.55;;
63012;SDS011;62113;45.624;11.700;2023-02-21T06:04:19;84.85;;;42.42;;
63012;SDS011;62113;45.624;11.700;2023-02-21T06:06:45;83.10;;;41.50;;
63012;SDS011;62113;45.624;11.700;2023-02-21T06:09:11;83.30;;;41.90;;
63012;SDS011;62113;45.624;11.700;2023-02-21T06:11:37;85.15;;;42.00;;
63012;SDS011;62113;45.624;11.700;2023-02-21T06:14:05;74.85;;;39.15;;
63012;SDS011;62113;45.624;11.700;2023-02-21T06:16:38;74.68;;;38.50;;
63012;SDS011;62113;45.624;11.700;2023-02-21T06:19:05;83.13;;;39.85;;
63012;SDS011;62113;45.624;11.700;2023-02-21T06:21:32;80.72;;;40.38;;
63012;SDS011;62113;45.624;11.700;2023-02-21T06:23:59;76.88;;;39.00;;
63012;SDS011;62113;45.624;11.700;2023-02-21T06:26:26;80.60;;;38.40;;
63012;SDS011;62113;45.624;11.700;2023-02-21T06:28:52;77.55;;;40.72;;
63012;SDS011;62113;45.624;11.700;2023-02-21T06:31:19;87.00;;;41.72;;
63012;SDS011;62113;45.624;11.700;2023-02-21T06:33:45;94.57;;;43.22;;
63012;SDS011;62113;45.624;11.700;2023-02-21T06:36:13;80.60;;;41.75;;
63012;SDS011;62113;45.624;11.700;2023-02-21T06:38:44;78.45;;;41.70;;
63012;SDS011;62113;45.624;11.700;2023-02-21T06:41:10;84.90;;;41.38;;
63012;SDS011;62113;45.624;11.700;2023-02-21T06:43:40;83.13;;;41.60;;
63012;SDS011;62113;45.624;11.700;2023-02-21T06:46:05;95.95;;;43.38;;
63012;SDS011;62113;45.624;11.700;2023-02-21T06:48:31;82.82;;;42.42;;
63012;SDS011;62113;45.624;11.700;2023-02-21T06:50:57;83.78;;;42.35;;
63012;SDS011;62113;45.624;11.700;2023-02-21T06:53:22;79.85;;;39.63;;
63012;SDS011;62113;45.624;11.700;2023-02-21T06:55:48;79.55;;;39.05;;
63012;SDS011;62113;45.624;11.700;2023-02-21T06:58:13;69.50;;;37.80;;
63012;SDS011;62113;45.624;11.700;2023-02-21T07:00:39;74.90;;;38.35;;
63012;SDS011;62113;45.624;11.700;2023-02-21T07:03:05;81.15;;;40.45;;
63012;SDS011;62113;45.624;11.700;2023-02-21T07:05:30;69.90;;;38.10;;
63012;SDS011;62113;45.624;11.700;2023-02-21T07:07:59;84.10;;;40.78;;
63012;SDS011;62113;45.624;11.700;2023-02-21T07:10:25;74.28;;;39.05;;
63012;SDS011;62113;45.624;11.700;2023-02-21T07:12:52;77.13;;;39.47;;
63012;SDS011;62113;45.624;11.700;2023-02-21T07:15:17;76.00;;;41.15;;
63012;SDS011;62113;45.624;11.700;2023-02-21T07:17:43;67.35;;;37.30;;
63012;SDS011;62113;45.624;11.700;2023-02-21T07:20:09;85.60;;;39.30;;
63012;SDS011;62113;45.624;11.700;2023-02-21T07:22:35;89.95;;;40.33;;
63012;SDS011;62113;45.624;11.700;2023-02-21T07:25:00;79.93;;;39.85;;
63012;SDS011;62113;45.624;11.700;2023-02-21T07:27:26;85.13;;;41.60;;
63012;SDS011;62113;45.624;11.700;2023-02-21T07:29:52;91.32;;;41.10;;
63012;SDS011;62113;45.624;11.700;2023-02-21T07:32:17;72.82;;;37.45;;
63012;SDS011;62113;45.624;11.700;2023-02-21T07:34:43;72.15;;;38.83;;
63012;SDS011;62113;45.624;11.700;2023-02-21T07:37:09;69.97;;;36.95;;
63012;SDS011;62113;45.624;11.700;2023-02-21T07:39:35;78.83;;;37.93;;
63012;SDS011;62113;45.624;11.700;2023-02-21T07:42:02;68.50;;;35.03;;
63012;SDS011;62113;45.624;11.700;2023-02-21T07:44:28;75.32;;;36.75;;
63012;SDS011;62113;45.624;11.700;2023-02-21T07:46:54;73.93;;;32.58;;
63012;SDS011;62113;45.624;11.700;2023-02-21T07:49:21;69.70;;;35.60;;
63012;SDS011;62113;45.624;11.700;2023-02-21T07:51:47;88.30;;;38.95;;
63012;SDS011;62113;45.624;11.700;2023-02-21T07:54:12;85.55;;;40.13;;
63012;SDS011;62113;45.624;11.700;2023-02-21T07:56:43;88.88;;;44.17;;
63012;SDS011;62113;45.624;11.700;2023-02-21T07:59:09;87.25;;;45.42;;
63012;SDS011;62113;45.624;11.700;2023-02-21T08:01:35;92.07;;;45.72;;
63012;SDS011;62113;45.624;11.700;2023-02-21T08:04:01;98.18;;;46.60;;
63012;SDS011;62113;45.624;11.700;2023-02-21T08:06:26;98.05;;;47.25;;
63012;SDS011;62113;45.624;11.700;2023-02-21T08:08:52;89.00;;;45.33;;
63012;SDS011;62113;45.624;11.700;2023-02-21T08:11:17;105.45;;;46.70;;
63012;SDS011;62113;45.624;11.700;2023-02-21T08:13:43;101.88;;;44.75;;
63012;SDS011;62113;45.624;11.700;2023-02-21T08:16:09;96.88;;;45.83;;
63012;SDS011;62113;45.624;11.700;2023-02-21T08:18:34;101.50;;;46.15;;
63012;SDS011;62113;45.624;11.700;2023-02-21T08:21:00;87.93;;;45.30;;
63012;SDS011;62113;45.624;11.700;2023-02-21T08:23:26;95.25;;;45.33;;
63012;SDS011;62113;45.624;11.700;2023-02-21T08:25:51;95.97;;;45.60;;
63012;SDS011;62113;45.624;11.700;2023-02-21T08:28:17;93.72;;;46.70;;
63012;SDS011;62113;45.624;11.700;2023-02-21T08:30:43;105.40;;;48.60;;
63012;SDS011;62113;45.624;11.700;2023-02-21T08:33:08;99.57;;;48.60;;
63012;SDS011;62113;45.624;11.700;2023-02-21T08:35:35;99.68;;;49.72;;
63012;SDS011;62113;45.624;11.700;2023-02-21T08:38:01;101.22;;;49.03;;
63012;SDS011;62113;45.624;11.700;2023-02-21T08:40:29;107.97;;;49.63;;
63012;SDS011;62113;45.624;11.700;2023-02-21T08:42:55;99.43;;;51.40;;
63012;SDS011;62113;45.624;11.700;2023-02-21T08:45:22;93.00;;;47.25;;
63012;SDS011;62113;45.624;11.700;2023-02-21T08:47:49;104.82;;;49.50;;
63012;SDS011;62113;45.624;11.700;2023-02-21T08:50:15;82.77;;;44.47;;
63012;SDS011;62113;45.624;11.700;2023-02-21T08:52:42;102.70;;;49.33;;
63012;SDS011;62113;45.624;11.700;2023-02-21T08:55:10;103.60;;;49.88;;
63012;SDS011;62113;45.624;11.700;2023-02-21T08:57:35;94.53;;;48.72;;
63012;SDS011;62113;45.624;11.700;2023-02-21T09:00:02;91.75;;;46.58;;
63012;SDS011;62113;45.624;11.700;2023-02-21T09:02:30;95.25;;;47.30;;
63012;SDS011;62113;45.624;11.700;2023-02-21T09:04:56;97.95;;;46.30;;
63012;SDS011;62113;45.624;11.700;2023-02-21T09:07:23;90.75;;;45.33;;
63012;SDS011;62113;45.624;11.700;2023-02-21T09:09:49;101.78;;;47.40;;
63012;SDS011;62113;45.624;11.700;2023-02-21T09:12:15;92.65;;;48.35;;
63012;SDS011;62113;45.624;11.700;2023-02-21T09:14:41;103.75;;;48.50;;
63012;SDS011;62113;45.624;11.700;2023-02-21T09:17:08;92.32;;;46.10;;
63012;SDS011;62113;45.624;11.700;2023-02-21T09:19:35;91.05;;;44.58;;
63012;SDS011;62113;45.624;11.700;2023-02-21T09:22:01;102.75;;;48.28;;
63012;SDS011;62113;45.624;11.700;2023-02-21T09:24:28;90.82;;;45.00;;
63012;SDS011;62113;45.624;11.700;2023-02-21T09:26:54;94.85;;;48.65;;
63012;SDS011;62113;45.624;11.700;2023-02-21T09:29:27;91.97;;;44.88;;
63012;SDS011;62113;45.624;11.700;2023-02-21T09:31:54;100.32;;;47.65;;
63012;SDS011;62113;45.624;11.700;2023-02-21T09:34:19;100.05;;;48.28;;
63012;SDS011;62113;45.624;11.700;2023-02-21T09:36:46;95.25;;;47.75;;
63012;SDS011;62113;45.624;11.700;2023-02-21T09:39:12;92.95;;;43.08;;
63012;SDS011;62113;45.624;11.700;2023-02-21T09:41:39;99.45;;;48.03;;
63012;SDS011;62113;45.624;11.700;2023-02-21T09:44:09;102.05;;;48.65;;
63012;SDS011;62113;45.624;11.700;2023-02-21T09:49:10;101.53;;;48.00;;
63012;SDS011;62113;45.624;11.700;2023-02-21T09:51:42;99.75;;;46.70;;
63012;SDS011;62113;45.624;11.700;2023-02-21T09:54:17;103.93;;;48.22;;
63012;SDS011;62113;45.624;11.700;2023-02-21T09:56:46;98.25;;;48.35;;
63012;SDS011;62113;45.624;11.700;2023-02-21T09:59:12;98.80;;;48.47;;
63012;SDS011;62113;45.624;11.700;2023-02-21T10:06:54;98.30;;;46.47;;
63012;SDS011;62113;45.624;11.700;2023-02-21T10:12:21;103.57;;;49.53;;
63012;SDS011;62113;45.624;11.700;2023-02-21T10:15:07;105.53;;;50.13;;
63012;SDS011;62113;45.624;11.700;2023-02-21T10:18:02;104.70;;;53.65;;
63012;SDS011;62113;45.624;11.700;2023-02-21T10:26:00;104.75;;;51.65;;
63012;SDS011;62113;45.624;11.700;2023-02-21T10:28:31;95.45;;;49.42;;
63012;SDS011;62113;45.624;11.700;2023-02-21T10:30:58;109.82;;;51.03;;
63012;SDS011;62113;45.624;11.700;2023-02-21T10:33:27;103.10;;;48.70;;
63012;SDS011;62113;45.624;11.700;2023-02-21T10:35:53;101.50;;;52.05;;
63012;SDS011;62113;45.624;11.700;2023-02-21T10:38:19;89.10;;;41.45;;
63012;SDS011;62113;45.624;11.700;2023-02-21T10:46:32;108.95;;;51.35;;
63012;SDS011;62113;45.624;11.700;2023-02-21T10:55:09;104.03;;;50.88;;
63012;SDS011;62113;45.624;11.700;2023-02-21T10:57:44;114.03;;;53.53;;
63012;SDS011;62113;45.624;11.700;2023-02-21T11:00:25;102.90;;;52.03;;
63012;SDS011;62113;45.624;11.700;2023-02-21T11:03:01;106.65;;;53.85;;
63012;SDS011;62113;45.624;11.700;2023-02-21T11:05:51;108.45;;;51.38;;
63012;SDS011;62113;45.624;11.700;2023-02-21T11:11:04;105.32;;;53.20;;
63012;SDS011;62113;45.624;11.700;2023-02-21T11:13:30;107.25;;;54.90;;
63012;SDS011;62113;45.624;11.700;2023-02-21T11:18:34;125.70;;;57.65;;
63012;SDS011;62113;45.624;11.700;2023-02-21T11:21:09;111.30;;;53.30;;
63012;SDS011;62113;45.624;11.700;2023-02-21T11:23:35;118.90;;;54.75;;
63012;SDS011;62113;45.624;11.700;2023-02-21T11:26:05;115.03;;;55.42;;
63012;SDS011;62113;45.624;11.700;2023-02-21T11:28:38;111.18;;;57.15;;
63012;SDS011;62113;45.624;11.700;2023-02-21T11:31:12;115.13;;;55.00;;
63012;SDS011;62113;45.624;11.700;2023-02-21T11:34:00;122.70;;;58.08;;
63012;SDS011;62113;45.624;11.700;2023-02-21T11:36:29;117.57;;;55.20;;
63012;SDS011;62113;45.624;11.700;2023-02-21T11:38:58;124.97;;;59.47;;
63012;SDS011;62113;45.624;11.700;2023-02-21T11:43:56;133.48;;;63.00;;
63012;SDS011;62113;45.624;11.700;2023-02-21T11:49:16;115.43;;;54.85;;
63012;SDS011;62113;45.624;11.700;2023-02-21T11:52:05;111.65;;;55.25;;
63012;SDS011;62113;45.624;11.700;2023-02-21T11:54:35;118.25;;;58.67;;
63012;SDS011;62113;45.624;11.700;2023-02-21T11:57:16;118.10;;;54.83;;
63012;SDS011;62113;45.624;11.700;2023-02-21T11:59:47;114.82;;;56.88;;
63012;SDS011;62113;45.624;11.700;2023-02-21T12:05:27;119.65;;;56.88;;
63012;SDS011;62113;45.624;11.700;2023-02-21T12:08:52;116.93;;;58.20;;
63012;SDS011;62113;45.624;11.700;2023-02-21T12:13:35;119.93;;;56.65;;
63012;SDS011;62113;45.624;11.700;2023-02-21T12:27:30;122.75;;;60.08;;
63012;SDS011;62113;45.624;11.700;2023-02-21T12:30:19;120.03;;;59.25;;
63012;SDS011;62113;45.624;11.700;2023-02-21T12:44:25;113.72;;;57.58;;
63012;SDS011;62113;45.624;11.700;2023-02-21T12:47:11;117.25;;;56.00;;
63012;SDS011;62113;45.624;11.700;2023-02-21T12:58:14;119.07;;;59.63;;
63012;SDS011;62113;45.624;11.700;2023-02-21T13:00:35;120.65;;;57.33;;
63012;SDS011;62113;45.624;11.700;2023-02-21T13:11:41;121.95;;;57.85;;
63012;SDS011;62113;45.624;11.700;2023-02-21T13:14:30;121.70;;;61.60;;
63012;SDS011;62113;45.624;11.700;2023-02-21T13:17:02;118.82;;;58.47;;
63012;SDS011;62113;45.624;11.700;2023-02-21T13:19:35;124.30;;;59.72;;
63012;SDS011;62113;45.624;11.700;2023-02-21T13:30:39;117.82;;;58.30;;
63012;SDS011;62113;45.624;11.700;2023-02-21T13:33:20;114.57;;;55.90;;
63012;SDS011;62113;45.624;11.700;2023-02-21T13:35:59;116.93;;;54.60;;
63012;SDS011;62113;45.624;11.700;2023-02-21T13:38:26;126.13;;;58.90;;
63012;SDS011;62113;45.624;11.700;2023-02-21T13:41:05;128.15;;;60.00;;
63012;SDS011;62113;45.624;11.700;2023-02-21T13:43:34;122.13;;;56.10;;
63012;SDS011;62113;45.624;11.700;2023-02-21T13:57:33;126.60;;;55.83;;
63012;SDS011;62113;45.624;11.700;2023-02-21T14:03:15;125.13;;;58.03;;
63012;SDS011;62113;45.624;11.700;2023-02-21T14:13:32;119.07;;;54.78;;
63012;SDS011;62113;45.624;11.700;2023-02-21T14:15:59;123.18;;;56.22;;
63012;SDS011;62113;45.624;11.700;2023-02-21T14:18:50;119.07;;;54.33;;
63012;SDS011;62113;45.624;11.700;2023-02-21T14:21:42;99.28;;;50.42;;
63012;SDS011;62113;45.624;11.700;2023-02-21T14:24:44;105.43;;;52.72;;
63012;SDS011;62113;45.624;11.700;2023-02-21T14:27:50;110.97;;;53.83;;
63012;SDS011;62113;45.624;11.700;2023-02-21T14:32:34;117.88;;;55.72;;
63012;SDS011;62113;45.624;11.700;2023-02-21T14:37:41;123.78;;;56.80;;
63012;SDS011;62113;45.624;11.700;2023-02-21T14:49:33;111.60;;;55.67;;
63012;SDS011;62113;45.624;11.700;2023-02-21T14:52:18;121.82;;;57.05;;
63012;SDS011;62113;45.624;11.700;2023-02-21T15:03:16;113.18;;;54.50;;
63012;SDS011;62113;45.624;11.700;2023-02-21T15:08:26;131.10;;;59.95;;
63012;SDS011;62113;45.624;11.700;2023-02-21T15:10:53;122.00;;;58.28;;
63012;SDS011;62113;45.624;11.700;2023-02-21T15:15:59;114.03;;;55.42;;
63012;SDS011;62113;45.624;11.700;2023-02-21T15:18:29;113.68;;;51.80;;
63012;SDS011;62113;45.624;11.700;2023-02-21T15:23:44;105.32;;;51.97;;
63012;SDS011;62113;45.624;11.700;2023-02-21T15:29:07;130.35;;;66.75;;
63012;SDS011;62113;45.624;11.700;2023-02-21T15:31:37;114.60;;;57.53;;
63012;SDS011;62113;45.624;11.700;2023-02-21T15:34:11;121.07;;;61.00;;
63012;SDS011;62113;45.624;11.700;2023-02-21T15:36:42;127.78;;;58.25;;
63012;SDS011;62113;45.624;11.700;2023-02-21T15:42:11;120.70;;;55.03;;
63012;SDS011;62113;45.624;11.700;2023-02-21T15:44:42;113.00;;;53.17;;
63012;SDS011;62113;45.624;11.700;2023-02-21T15:47:13;120.35;;;54.28;;
63012;SDS011;62113;45.624;11.700;2023-02-21T15:49:46;108.93;;;53.33;;
63012;SDS011;62113;45.624;11.700;2023-02-21T15:52:38;122.63;;;55.75;;
63012;SDS011;62113;45.624;11.700;2023-02-21T15:57:44;131.82;;;62.88;;
63012;SDS011;62113;45.624;11.700;2023-02-21T16:00:24;109.82;;;53.92;;
63012;SDS011;62113;45.624;11.700;2023-02-21T16:02:51;122.40;;;57.28;;
63012;SDS011;62113;45.624;11.700;2023-02-21T16:05:37;116.80;;;56.47;;
63012;SDS011;62113;45.624;11.700;2023-02-21T16:08:03;137.68;;;56.95;;
63012;SDS011;62113;45.624;11.700;2023-02-21T16:10:29;122.88;;;57.97;;
63012;SDS011;62113;45.624;11.700;2023-02-21T16:15:24;128.57;;;58.10;;
63012;SDS011;62113;45.624;11.700;2023-02-21T16:18:38;140.27;;;58.72;;
63012;SDS011;62113;45.624;11.700;2023-02-21T16:20:42;133.30;;;58.53;;
63012;SDS011;62113;45.624;11.700;2023-02-21T16:28:23;142.48;;;65.20;;
63012;SDS011;62113;45.624;11.700;2023-02-21T16:30:49;133.75;;;61.92;;
63012;SDS011;62113;45.624;11.700;2023-02-21T16:33:15;154.55;;;70.07;;
63012;SDS011;62113;45.624;11.700;2023-02-21T16:35:41;148.77;;;70.07;;
63012;SDS011;62113;45.624;11.700;2023-02-21T16:38:14;144.03;;;70.90;;
63012;SDS011;62113;45.624;11.700;2023-02-21T16:40:41;139.32;;;66.65;;
63012;SDS011;62113;45.624;11.700;2023-02-21T16:43:07;134.57;;;65.35;;
63012;SDS011;62113;45.624;11.700;2023-02-21T16:45:50;136.90;;;63.33;;
63012;SDS011;62113;45.624;11.700;2023-02-21T16:48:19;136.27;;;64.13;;
63012;SDS011;62113;45.624;11.700;2023-02-21T16:50:48;141.88;;;65.03;;
63012;SDS011;62113;45.624;11.700;2023-02-21T16:53:15;138.30;;;60.70;;
63012;SDS011;62113;45.624;11.700;2023-02-21T16:55:42;128.50;;;59.30;;
63012;SDS011;62113;45.624;11.700;2023-02-21T16:58:17;134.35;;;60.00;;
63012;SDS011;62113;45.624;11.700;2023-02-21T17:00:57;136.27;;;62.08;;
63012;SDS011;62113;45.624;11.700;2023-02-21T17:03:25;131.55;;;60.75;;
63012;SDS011;62113;45.624;11.700;2023-02-21T17:05:53;147.43;;;62.72;;
63012;SDS011;62113;45.624;11.700;2023-02-21T17:08:20;155.35;;;69.80;;
63012;SDS011;62113;45.624;11.700;2023-02-21T17:10:46;143.75;;;65.72;;
63012;SDS011;62113;45.624;11.700;2023-02-21T17:13:11;126.10;;;61.08;;
63012;SDS011;62113;45.624;11.700;2023-02-21T17:15:37;134.77;;;59.83;;
63012;SDS011;62113;45.624;11.700;2023-02-21T17:18:03;139.40;;;59.67;;
63012;SDS011;62113;45.624;11.700;2023-02-21T17:20:29;126.22;;;60.00;;
63012;SDS011;62113;45.624;11.700;2023-02-21T17:22:55;141.48;;;62.13;;
63012;SDS011;62113;45.624;11.700;2023-02-21T17:25:23;133.05;;;60.05;;
63012;SDS011;62113;45.624;11.700;2023-02-21T17:27:49;135.20;;;59.47;;
63012;SDS011;62113;45.624;11.700;2023-02-21T17:30:16;131.13;;;60.37;;
63012;SDS011;62113;45.624;11.700;2023-02-21T17:32:43;137.07;;;60.17;;
63012;SDS011;62113;45.624;11.700;2023-02-21T17:35:10;136.38;;;59.90;;
63012;SDS011;62113;45.624;11.700;2023-02-21T17:37:40;128.98;;;59.38;;
63012;SDS011;62113;45.624;11.700;2023-02-21T17:40:07;142.90;;;60.40;;
63012;SDS011;62113;45.624;11.700;2023-02-21T17:44:59;131.20;;;57.93;;
63012;SDS011;62113;45.624;11.700;2023-02-21T17:47:26;129.18;;;60.80;;
63012;SDS011;62113;45.624;11.700;2023-02-21T17:49:52;127.88;;;62.15;;
63012;SDS011;62113;45.624;11.700;2023-02-21T17:52:22;140.75;;;62.40;;
63012;SDS011;62113;45.624;11.700;2023-02-21T17:54:48;147.60;;;65.22;;
63012;SDS011;62113;45.624;11.700;2023-02-21T17:57:14;138.43;;;61.20;;